createdAt,value
2022-11-05T00:02:25.503Z,1.83
2022-11-05T00:05:47.345Z,2.93
2022-11-05T00:09:07.624Z,2.10
2022-11-05T00:12:42.239Z,3.07
2022-11-05T00:16:03.348Z,2.43
2022-11-05T00:19:10.002Z,2.63
2022-11-05T00:22:31.683Z,3.80
2022-11-05T00:25:34.439Z,2.60
2022-11-05T00:28:37.172Z,2.43
2022-11-05T00:31:39.856Z,2.07
2022-11-05T00:34:42.520Z,2.50
2022-11-05T00:37:50.366Z,2.03
2022-11-05T00:40:53.465Z,2.47
2022-11-05T00:44:13.526Z,3.30
2022-11-05T00:47:33.687Z,2.30
2022-11-05T00:50:36.373Z,2.50
2022-11-05T00:53:40.509Z,3.00
2022-11-05T00:56:43.187Z,2.53
2022-11-05T00:59:45.906Z,3.50
2022-11-05T01:02:48.648Z,2.70
2022-11-05T01:05:52.733Z,2.03
2022-11-05T01:08:57.046Z,1.43
2022-11-05T01:11:59.672Z,1.63
2022-11-05T01:15:02.516Z,2.73
2022-11-05T01:18:05.452Z,2.77
2022-11-05T01:21:12.221Z,2.07
2022-11-05T01:24:16.197Z,2.37
2022-11-05T01:27:18.944Z,2.17
2022-11-05T01:30:22.233Z,3.43
2022-11-05T01:33:25.094Z,1.70
2022-11-05T01:36:27.765Z,2.40
2022-11-05T01:39:31.833Z,2.47
2022-11-05T01:42:34.909Z,1.60
2022-11-05T01:45:37.977Z,2.20
2022-11-05T01:48:41.019Z,1.47
2022-11-05T01:51:45.934Z,1.80
2022-11-05T01:54:50.042Z,2.20
2022-11-05T01:57:55.433Z,2.13
2022-11-05T02:00:58.371Z,4.00
2022-11-05T02:04:05.188Z,2.03
2022-11-05T02:07:10.364Z,1.23
2022-11-05T02:10:17.944Z,1.97
2022-11-05T02:13:20.586Z,2.23
2022-11-05T02:16:38.203Z,1.73
2022-11-05T02:20:07.982Z,2.03
2022-11-05T02:23:53.266Z,3.17
2022-11-05T02:27:15.002Z,1.93
2022-11-05T02:30:43.347Z,1.47
2022-11-05T02:33:57.541Z,1.40
2022-11-05T02:37:12.641Z,2.07
2022-11-05T02:40:27.331Z,1.90
2022-11-05T02:43:49.338Z,2.40
2022-11-05T02:47:02.615Z,1.80
2022-11-05T02:50:22.624Z,2.30
2022-11-05T02:53:41.625Z,1.50
2022-11-05T02:56:52.751Z,2.20
2022-11-05T03:00:06.704Z,1.67
2022-11-05T03:03:24.087Z,1.83
2022-11-05T03:06:54.172Z,2.00
2022-11-05T03:10:08.644Z,1.73
2022-11-05T03:13:21.795Z,2.50
2022-11-05T03:16:39.337Z,1.57
2022-11-05T03:19:52.763Z,1.43
2022-11-05T03:23:14.027Z,1.70
2022-11-05T03:26:25.265Z,2.23
2022-11-05T03:29:34.772Z,1.97
2022-11-05T03:32:44.889Z,1.80
2022-11-05T03:36:01.457Z,1.70
2022-11-05T03:39:15.361Z,1.90
2022-11-05T03:42:24.258Z,1.97
2022-11-05T03:45:33.949Z,1.87
2022-11-05T03:48:46.329Z,1.37
2022-11-05T03:52:02.502Z,1.50
2022-11-05T03:55:09.897Z,1.50
2022-11-05T03:58:16.771Z,1.40
2022-11-05T04:01:23.238Z,1.80
2022-11-05T04:04:31.027Z,1.47
2022-11-05T04:07:58.657Z,1.43
2022-11-05T04:11:21.372Z,1.97
2022-11-05T04:14:28.195Z,2.47
2022-11-05T04:17:34.828Z,2.17
2022-11-05T04:20:59.889Z,2.80
2022-11-05T04:24:13.789Z,1.80
2022-11-05T04:27:19.950Z,2.00
2022-11-05T04:30:25.916Z,2.47
2022-11-05T04:33:32.842Z,2.70
2022-11-05T04:36:43.885Z,2.73
2022-11-05T04:39:51.977Z,2.80
2022-11-05T04:42:59.383Z,2.83
2022-11-05T04:46:05.612Z,2.77
2022-11-05T04:49:13.134Z,4.40
2022-11-05T04:52:19.885Z,3.13
2022-11-05T04:55:31.991Z,3.80
2022-11-05T04:58:41.804Z,3.67
2022-11-05T05:02:05.975Z,4.60
2022-11-05T05:05:12.939Z,4.47
2022-11-05T05:08:20.662Z,4.97
2022-11-05T05:11:31.920Z,5.73
2022-11-05T05:14:38.037Z,6.03
2022-11-05T05:17:47.628Z,6.40
2022-11-05T05:21:11.307Z,5.67
2022-11-05T05:24:26.482Z,5.80
2022-11-05T05:27:35.950Z,7.50
2022-11-05T05:30:42.881Z,7.50
2022-11-05T05:33:49.153Z,6.93
2022-11-05T05:36:58.823Z,7.00
2022-11-05T05:40:05.119Z,9.17
2022-11-05T05:43:15.452Z,8.03
2022-11-05T05:46:21.920Z,6.80
2022-11-05T05:49:28.050Z,6.90
2022-11-05T05:52:38.666Z,7.80
2022-11-05T05:55:41.951Z,7.77
2022-11-05T05:58:46.182Z,9.40
2022-11-05T06:01:49.174Z,8.97
2022-11-05T06:04:51.961Z,7.70
2022-11-05T06:07:58.356Z,11.13
2022-11-05T06:11:02.511Z,10.30
2022-11-05T06:14:06.652Z,12.23
2022-11-05T06:17:09.388Z,11.33
2022-11-05T06:20:12.835Z,10.27
2022-11-05T06:23:15.590Z,13.20
2022-11-05T06:26:19.923Z,11.47
2022-11-05T06:29:23.991Z,12.00
2022-11-05T06:32:26.709Z,12.67
2022-11-05T06:35:29.404Z,10.73
2022-11-05T06:38:33.959Z,16.37
2022-11-05T06:41:56.957Z,10.30
2022-11-05T06:45:01.254Z,11.87
2022-11-05T06:48:04.222Z,11.93
2022-11-05T06:51:08.135Z,11.37
2022-11-05T06:54:10.956Z,13.00
2022-11-05T06:57:13.971Z,12.70
2022-11-05T07:00:18.985Z,13.00
2022-11-05T07:03:21.845Z,11.03
2022-11-05T07:06:24.598Z,13.57
2022-11-05T07:09:27.342Z,11.80
2022-11-05T07:12:30.425Z,9.80
2022-11-05T07:15:34.923Z,9.97
2022-11-05T07:18:37.816Z,9.70
2022-11-05T07:21:43.490Z,10.80
2022-11-05T07:24:47.265Z,11.90
2022-11-05T07:27:50.039Z,12.60
2022-11-05T07:30:54.121Z,11.97
2022-11-05T07:33:56.926Z,10.63
2022-11-05T07:36:59.831Z,11.20
2022-11-05T07:40:02.598Z,12.20
2022-11-05T07:43:05.370Z,11.77
2022-11-05T07:46:13.620Z,11.27
2022-11-05T07:49:16.813Z,10.33
2022-11-05T07:52:19.509Z,15.20
2022-11-05T07:55:22.226Z,12.73
2022-11-05T07:58:25.003Z,12.33
2022-11-05T08:01:32.258Z,10.83
2022-11-05T08:04:35.133Z,12.80
2022-11-05T08:07:37.826Z,9.57
2022-11-05T08:10:41.195Z,8.97
2022-11-05T08:13:44.032Z,8.33
2022-11-05T08:16:48.072Z,8.27
2022-11-05T08:19:50.857Z,5.57
2022-11-05T08:22:54.528Z,5.60
2022-11-05T08:25:58.099Z,4.80
2022-11-05T08:29:00.860Z,3.90
2022-11-05T08:32:05.094Z,3.73
2022-11-05T08:35:08.632Z,3.07
2022-11-05T08:38:14.670Z,3.70
2022-11-05T08:41:17.839Z,3.13
2022-11-05T08:44:20.667Z,3.63
2022-11-05T08:47:25.198Z,3.87
2022-11-05T08:50:28.280Z,3.30
2022-11-05T08:53:31.145Z,3.97
2022-11-05T08:56:33.957Z,4.43
2022-11-05T08:59:36.659Z,3.77
2022-11-05T09:02:40.924Z,4.17
2022-11-05T09:05:44.538Z,4.17
2022-11-05T09:08:47.448Z,3.20
2022-11-05T09:12:11.252Z,3.57
2022-11-05T09:15:12.844Z,5.20
2022-11-05T09:18:18.089Z,4.57
2022-11-05T09:21:21.505Z,4.33
2022-11-05T09:24:24.468Z,4.50
2022-11-05T09:27:27.490Z,5.93
2022-11-05T09:30:30.195Z,6.20
2022-11-05T09:33:35.818Z,6.80
2022-11-05T09:36:38.541Z,5.60
2022-11-05T09:39:41.305Z,6.60
2022-11-05T09:42:47.070Z,7.63
2022-11-05T09:45:54.324Z,6.77
2022-11-05T09:49:04.173Z,7.23
2022-11-05T09:52:11.382Z,7.50
2022-11-05T09:55:24.636Z,11.33
2022-11-05T09:58:37.250Z,6.87
2022-11-05T10:01:40.699Z,9.07
2022-11-05T10:04:47.672Z,8.07
2022-11-05T10:07:54.598Z,10.43
2022-11-05T10:11:03.542Z,8.13
2022-11-05T10:14:13.621Z,9.23
2022-11-05T10:17:22.353Z,9.37
2022-11-05T10:20:33.103Z,8.20
2022-11-05T10:23:35.816Z,8.67
2022-11-05T10:26:39.257Z,8.90
2022-11-05T10:29:44.021Z,12.17
2022-11-05T10:32:47.848Z,8.60
2022-11-05T10:35:57.026Z,8.87
2022-11-05T10:39:03.153Z,7.97
2022-11-05T10:42:35.320Z,8.30
2022-11-05T10:45:51.505Z,6.73
2022-11-05T10:49:07.596Z,6.50
2022-11-05T10:52:21.634Z,6.30
2022-11-05T10:55:40.082Z,8.17
2022-11-05T10:59:00.979Z,6.37
2022-11-05T11:02:17.500Z,8.77
2022-11-05T11:05:23.134Z,8.67
2022-11-05T11:08:28.141Z,9.23
2022-11-05T11:11:34.306Z,7.23
2022-11-05T11:14:36.998Z,5.63
2022-11-05T11:17:55.328Z,8.17
2022-11-05T11:21:17.108Z,6.70
2022-11-05T11:24:23.745Z,8.37
2022-11-05T11:27:30.138Z,8.80
2022-11-05T11:30:33.760Z,8.30
2022-11-05T11:33:38.850Z,7.57
2022-11-05T11:36:46.690Z,10.83
2022-11-05T11:39:54.005Z,7.33
2022-11-05T11:43:00.600Z,7.73
2022-11-05T11:46:09.872Z,7.23
2022-11-05T11:49:31.693Z,6.57
2022-11-05T11:52:36.784Z,5.57
2022-11-05T11:55:41.097Z,6.50
2022-11-05T11:58:46.735Z,7.03
2022-11-05T12:02:07.809Z,6.73
2022-11-05T12:05:24.120Z,6.07
2022-11-05T12:08:45.658Z,5.50
2022-11-05T12:11:59.763Z,6.73
2022-11-05T12:15:15.954Z,6.00
2022-11-05T12:18:26.644Z,7.17
2022-11-05T12:21:52.432Z,6.43
2022-11-05T12:25:17.799Z,5.73
2022-11-05T12:29:18.024Z,4.60
2022-11-05T12:33:02.866Z,3.65
2022-11-05T12:36:14.743Z,5.83
2022-11-05T12:39:29.578Z,4.43
2022-11-05T12:42:47.779Z,3.00
2022-11-05T12:46:00.307Z,3.47
2022-11-05T12:49:20.162Z,3.60
2022-11-05T12:52:40.829Z,3.28
2022-11-05T12:55:48.831Z,3.42
2022-11-05T12:58:59.643Z,3.42
2022-11-05T13:02:15.236Z,3.17
2022-11-05T13:05:20.995Z,3.33
2022-11-05T13:08:29.508Z,3.28
2022-11-05T13:11:37.405Z,2.63
2022-11-05T13:14:46.258Z,3.67
2022-11-05T13:17:55.133Z,2.88
2022-11-05T13:20:59.633Z,3.75
2022-11-05T13:24:07.001Z,3.95
2022-11-05T13:27:42.094Z,3.17
2022-11-05T13:30:51.621Z,3.57
2022-11-05T13:33:57.268Z,3.57
2022-11-05T13:37:21.589Z,3.83
2022-11-05T13:40:38.357Z,3.33
2022-11-05T13:43:58.700Z,3.10
2022-11-05T13:47:17.981Z,3.43
2022-11-05T13:50:44.566Z,3.30
2022-11-05T13:54:02.593Z,5.33
2022-11-05T13:57:22.174Z,5.17
2022-11-05T14:00:27.011Z,4.33
2022-11-05T14:03:30.309Z,3.75
2022-11-05T14:06:37.504Z,2.65
2022-11-05T14:09:41.798Z,5.90
2022-11-05T14:12:50.474Z,6.03
2022-11-05T14:16:03.207Z,4.83
2022-11-05T14:19:29.249Z,4.30
2022-11-05T14:22:41.357Z,4.30
2022-11-05T14:26:14.069Z,5.93
2022-11-05T14:29:25.165Z,3.43
2022-11-05T14:32:44.017Z,3.17
2022-11-05T14:35:46.793Z,3.17
2022-11-05T14:38:52.982Z,5.33
2022-11-05T14:41:59.022Z,3.53
2022-11-05T14:45:22.416Z,2.90
2022-11-05T14:48:37.779Z,3.23
2022-11-05T14:51:45.789Z,3.93
2022-11-05T14:54:53.291Z,4.37
2022-11-05T14:58:06.545Z,4.77
2022-11-05T15:01:10.815Z,3.97
2022-11-05T15:04:19.181Z,5.73
2022-11-05T15:07:36.640Z,4.23
2022-11-05T15:10:41.714Z,2.90
2022-11-05T15:13:52.574Z,5.00
2022-11-05T15:16:58.314Z,4.07
2022-11-05T15:20:09.361Z,3.60
2022-11-05T15:23:15.677Z,2.87
2022-11-05T15:26:28.081Z,3.00
2022-11-05T15:29:33.015Z,3.70
2022-11-05T15:32:38.436Z,7.37
2022-11-05T15:35:42.621Z,2.70
2022-11-05T15:38:56.875Z,4.43
2022-11-05T15:42:14.975Z,3.67
2022-11-05T15:45:21.467Z,2.67
2022-11-05T15:48:24.225Z,2.90
2022-11-05T15:51:28.077Z,3.87
2022-11-05T15:54:31.539Z,3.07
2022-11-05T15:57:40.263Z,2.93
2022-11-05T16:00:48.666Z,7.80
2022-11-05T16:03:53.641Z,4.20
2022-11-05T16:06:59.809Z,5.80
2022-11-05T16:10:06.072Z,5.20
2022-11-05T16:13:33.033Z,4.83
2022-11-05T16:16:35.771Z,2.53
2022-11-05T16:19:42.465Z,3.10
2022-11-05T16:22:46.353Z,4.77
2022-11-05T16:25:49.290Z,4.33
2022-11-05T16:28:54.098Z,3.63
2022-11-05T16:31:58.653Z,5.00
2022-11-05T16:35:04.350Z,5.23
2022-11-05T16:38:07.096Z,2.97
2022-11-05T16:41:14.993Z,3.43
2022-11-05T16:44:19.130Z,5.93
2022-11-05T16:47:23.007Z,3.87
2022-11-05T16:50:27.891Z,3.67
2022-11-05T16:53:30.717Z,3.50
2022-11-05T16:56:34.325Z,2.40
2022-11-05T16:59:38.429Z,2.83
2022-11-05T17:02:41.388Z,2.70
2022-11-05T17:05:44.436Z,1.67
2022-11-05T17:08:48.213Z,1.80
2022-11-05T17:11:50.925Z,2.87
2022-11-05T17:14:55.065Z,4.23
2022-11-05T17:17:58.859Z,3.80
2022-11-05T17:21:01.545Z,4.17
2022-11-05T17:24:04.479Z,3.70
2022-11-05T17:27:07.185Z,4.20
2022-11-05T17:30:13.505Z,6.20
2022-11-05T17:33:17.202Z,2.93
2022-11-05T17:36:20.225Z,3.53
2022-11-05T17:39:28.735Z,3.13
2022-11-05T17:42:34.522Z,3.23
2022-11-05T17:45:47.811Z,5.53
2022-11-05T17:48:50.650Z,4.67
2022-11-05T17:51:53.336Z,4.47
2022-11-05T17:54:56.621Z,5.57
2022-11-05T17:57:59.327Z,4.87
2022-11-05T18:01:03.735Z,4.67
2022-11-05T18:04:09.067Z,8.50
2022-11-05T18:07:12.268Z,5.90
2022-11-05T18:10:15.875Z,9.60
2022-11-05T18:13:18.738Z,9.80
2022-11-05T18:16:22.783Z,10.50
2022-11-05T18:19:25.473Z,12.40
2022-11-05T18:22:28.223Z,14.97
2022-11-05T18:25:30.945Z,10.33
2022-11-05T18:28:33.944Z,8.43
2022-11-05T18:31:38.582Z,5.83
2022-11-05T18:34:41.503Z,7.10
2022-11-05T18:37:44.194Z,6.40
2022-11-05T18:40:46.920Z,4.50
2022-11-05T18:43:49.774Z,7.33
2022-11-05T18:46:58.514Z,5.93
2022-11-05T18:50:01.821Z,7.40
2022-11-05T18:53:04.550Z,8.50
2022-11-05T18:56:11.121Z,7.00
2022-11-05T18:59:36.033Z,6.23
2022-11-05T19:02:38.977Z,5.97
2022-11-05T19:05:41.763Z,9.07
2022-11-05T19:08:44.988Z,4.70
2022-11-05T19:11:47.685Z,6.57
2022-11-05T19:14:50.387Z,5.83
2022-11-05T19:17:54.442Z,5.10
2022-11-05T19:20:57.169Z,6.93
2022-11-05T19:24:02.458Z,6.47
2022-11-05T19:27:05.389Z,7.73
2022-11-05T19:30:08.950Z,6.27
2022-11-05T19:33:13.041Z,4.70
2022-11-05T19:36:17.733Z,4.40
2022-11-05T19:39:20.495Z,4.30
2022-11-05T19:42:23.324Z,4.20
2022-11-05T19:48:51.091Z,8.97
2022-11-05T19:51:53.884Z,4.00
2022-11-05T19:54:56.678Z,4.50
2022-11-05T19:57:59.423Z,4.23
2022-11-05T20:01:02.256Z,7.87
2022-11-05T20:04:06.956Z,6.93
2022-11-05T20:07:09.730Z,7.00
2022-11-05T20:10:12.768Z,4.53
2022-11-05T20:13:19.840Z,4.87
2022-11-05T20:16:25.345Z,6.23
2022-11-05T20:19:29.466Z,4.83
2022-11-05T20:22:32.355Z,5.67
2022-11-05T20:25:35.337Z,5.77
2022-11-05T20:28:39.049Z,7.63
2022-11-05T20:31:41.832Z,8.13
2022-11-05T20:34:45.823Z,6.20
2022-11-05T20:37:53.711Z,7.63
2022-11-05T20:40:56.924Z,7.83
2022-11-05T20:44:00.008Z,9.03
2022-11-05T20:47:02.667Z,7.53
2022-11-05T20:50:08.659Z,6.97
2022-11-05T20:53:13.012Z,7.57
2022-11-05T20:56:20.051Z,9.47
2022-11-05T20:59:23.925Z,7.57
2022-11-05T21:02:26.739Z,8.67
2022-11-05T21:05:35.377Z,8.67
2022-11-05T21:08:38.752Z,12.17
2022-11-05T21:11:58.854Z,9.90
2022-11-05T21:15:01.480Z,8.23
2022-11-05T21:18:04.955Z,11.43
2022-11-05T21:21:12.246Z,9.77
2022-11-05T21:24:14.966Z,7.87
2022-11-05T21:27:17.601Z,7.83
2022-11-05T21:30:20.388Z,7.80
2022-11-05T21:33:23.052Z,8.30
2022-11-05T21:36:27.326Z,8.53
2022-11-05T21:39:29.956Z,6.73
2022-11-05T21:42:32.622Z,7.27
2022-11-05T21:45:35.351Z,4.67
2022-11-05T21:48:37.967Z,5.17
2022-11-05T21:51:59.449Z,4.10
2022-11-05T21:55:19.959Z,5.10
2022-11-05T21:58:39.971Z,4.87
2022-11-05T22:01:42.741Z,4.27
2022-11-05T22:04:47.462Z,4.47
2022-11-05T22:07:51.556Z,5.60
2022-11-05T22:10:54.261Z,6.13
2022-11-05T22:13:56.907Z,5.67
2022-11-05T22:16:59.592Z,5.93
2022-11-05T22:20:02.291Z,5.37
2022-11-05T22:23:10.865Z,4.57
2022-11-05T22:26:13.915Z,5.57
2022-11-05T22:29:16.680Z,6.73
2022-11-05T22:32:19.856Z,4.73
2022-11-05T22:35:22.503Z,5.90
2022-11-05T22:38:26.576Z,3.77
2022-11-05T22:41:29.470Z,4.73
2022-11-05T22:44:32.140Z,4.17
2022-11-05T22:47:34.794Z,4.90
2022-11-05T22:50:37.415Z,4.00
2022-11-05T22:53:42.244Z,4.03
2022-11-05T22:56:45.064Z,4.80
2022-11-05T22:59:48.342Z,4.77
2022-11-05T23:02:52.405Z,7.23
2022-11-05T23:05:58.555Z,5.73
2022-11-05T23:09:22.685Z,5.13
2022-11-05T23:12:27.999Z,5.10
2022-11-05T23:15:48.405Z,6.70
2022-11-05T23:19:08.487Z,6.90
2022-11-05T23:22:31.030Z,4.97
2022-11-05T23:25:35.343Z,5.67
2022-11-05T23:28:37.973Z,6.43
2022-11-05T23:31:58.261Z,4.67
2022-11-05T23:35:01.233Z,3.87
2022-11-05T23:38:21.250Z,4.33
2022-11-05T23:41:42.439Z,4.63
2022-11-05T23:45:02.443Z,5.23
2022-11-05T23:48:18.139Z,3.07
2022-11-05T23:51:21.031Z,4.47
2022-11-05T23:54:23.691Z,4.30
2022-11-05T23:57:27.796Z,4.17
